Terminal Aerodrome Forecast
Issued by NWS

Home | Current Version | Previous Version | Text Only | Print | Product List | Glossary On
Versions: 1 2 3 4 5 6 7 8 9 10 11 12 13 14 15
000
FTUS43 KIND 310500
TAFHUF
TAF
KHUF 310521Z 3106/0106 34004KT P6SM -RA BKN045 OVC050
     FM311300 33013G20KT P6SM VCSH SCT015 BKN025
     FM311800 34016G30KT P6SM VCSH BKN020
     FM010100 33014G22KT P6SM -RASN BKN030=

USA.gov is the U.S. government's official web portal to all federal, state and local government web resources and services.